Terminal Aerodrome Forecast
Issued by NWS Billings, MT

Home | Current Version | Previous Version | Text Only | Print | Product List | Glossary On
Versions: 1 2 3 4 5 6 7 8 9 10 11 12 13 14 15 16 17 18 19 20 21 22 23 24 25 26 27 28 29 30 31 32 33 34 35 36 37 38 39
000
FTUS45 KBYZ 290533
TAFSHR
TAF
KSHR 290533Z 2906/3006 24020G35KT P6SM SCT100
      TEMPO 2906/2910 24040G55KT
     FM291100 32018G28KT P6SM OVC025
     FM291700 32016G26KT P6SM VCSH BKN008 OVC015
     FM292100 32014G24KT 2SM -SN BR OVC008=

USA.gov is the U.S. government's official web portal to all federal, state and local government web resources and services.